createdAt,value
2023-03-04T00:02:16.326Z,36.06
2023-03-04T00:04:43.041Z,35.94
2023-03-04T00:07:09.593Z,35.85
2023-03-04T00:09:36.370Z,35.98
2023-03-04T00:12:02.936Z,35.83
2023-03-04T00:14:30.580Z,35.87
2023-03-04T00:16:57.219Z,35.76
2023-03-04T00:19:24.024Z,35.74
2023-03-04T00:21:50.894Z,35.67
2023-03-04T00:24:17.510Z,35.69
2023-03-04T00:26:44.384Z,35.68
2023-03-04T00:29:11.015Z,35.89
2023-03-04T00:31:37.625Z,35.64
2023-03-04T00:34:04.286Z,35.75
2023-03-04T00:36:31.015Z,35.42
2023-03-04T00:38:57.577Z,35.51
2023-03-04T00:41:24.152Z,35.36
2023-03-04T00:43:51.012Z,35.44
2023-03-04T00:46:17.684Z,35.25
2023-03-04T00:48:44.295Z,35.40
2023-03-04T00:51:10.813Z,35.35
2023-03-04T00:53:37.420Z,35.26
2023-03-04T00:56:04.188Z,35.14
2023-03-04T00:58:30.958Z,35.03
2023-03-04T01:00:58.603Z,35.15
2023-03-04T01:03:26.888Z,34.97
2023-03-04T01:05:53.414Z,34.91
2023-03-04T01:08:19.962Z,34.87
2023-03-04T01:10:46.490Z,34.77
2023-03-04T01:13:13.397Z,34.95
2023-03-04T01:15:39.951Z,34.82
2023-03-04T01:18:06.637Z,35.09
2023-03-04T01:20:33.187Z,34.75
2023-03-04T01:22:59.758Z,34.67
2023-03-04T01:25:26.534Z,34.58
2023-03-04T01:27:53.229Z,34.64
2023-03-04T01:30:19.840Z,34.44
2023-03-04T01:32:46.439Z,34.62
2023-03-04T01:35:12.924Z,34.61
2023-03-04T01:37:39.598Z,34.52
2023-03-04T01:40:07.063Z,34.49
2023-03-04T01:42:35.854Z,34.50
2023-03-04T01:45:03.172Z,34.37
2023-03-04T01:47:32.618Z,34.43
2023-03-04T01:50:05.021Z,34.30
2023-03-04T01:52:31.650Z,34.11
2023-03-04T01:54:58.471Z,34.21
2023-03-04T01:57:26.453Z,34.13
2023-03-04T02:00:20.220Z,34.19
2023-03-04T02:02:52.666Z,34.12
2023-03-04T02:05:19.594Z,34.14
2023-03-04T02:07:46.375Z,34.00
2023-03-04T02:10:13.175Z,33.92
2023-03-04T02:12:40.474Z,33.94
2023-03-04T02:15:08.123Z,33.86
2023-03-04T02:17:34.879Z,33.96
2023-03-04T02:20:26.047Z,34.02
2023-03-04T02:23:11.410Z,33.73
2023-03-04T02:25:45.559Z,33.73
2023-03-04T02:28:12.463Z,33.77
2023-03-04T02:30:39.151Z,33.71
2023-03-04T02:33:05.972Z,33.59
2023-03-04T02:35:32.889Z,33.55
2023-03-04T02:37:59.516Z,33.53
2023-03-04T02:40:33.412Z,33.60
2023-03-04T02:43:01.149Z,33.49
2023-03-04T02:45:36.126Z,33.59
2023-03-04T02:48:06.224Z,33.43
2023-03-04T02:50:37.606Z,33.38
2023-03-04T02:53:04.960Z,33.40
2023-03-04T02:55:32.267Z,33.30
2023-03-04T02:57:59.943Z,33.38
2023-03-04T03:00:27.953Z,33.20
2023-03-04T03:02:57.010Z,33.46
2023-03-04T03:05:27.175Z,33.22
2023-03-04T03:07:55.268Z,33.06
2023-03-04T03:10:24.139Z,33.16
2023-03-04T03:12:51.712Z,33.18
2023-03-04T03:15:20.284Z,33.16
2023-03-04T03:17:47.366Z,33.01
2023-03-04T03:20:15.710Z,33.04
2023-03-04T03:22:42.911Z,32.96
2023-03-04T03:25:11.661Z,32.83
2023-03-04T03:27:38.358Z,32.99
2023-03-04T03:30:06.245Z,33.03
2023-03-04T03:32:35.782Z,33.15
2023-03-04T03:35:02.431Z,33.21
2023-03-04T03:37:29.066Z,33.27
2023-03-04T03:39:55.551Z,33.21
2023-03-04T03:42:22.167Z,33.55
2023-03-04T03:44:50.148Z,33.98
2023-03-04T03:47:16.766Z,34.00
2023-03-04T03:49:43.298Z,34.06
2023-03-04T03:52:10.322Z,33.80
2023-03-04T03:54:36.813Z,33.90
2023-03-04T03:57:03.814Z,33.85
2023-03-04T03:59:30.392Z,33.87
2023-03-04T04:01:57.056Z,33.60
2023-03-04T04:04:23.650Z,33.66
2023-03-04T04:06:50.221Z,33.59
2023-03-04T04:09:16.731Z,33.61
2023-03-04T04:11:43.421Z,33.49
2023-03-04T04:14:13.235Z,33.54
2023-03-04T04:16:40.111Z,33.52
2023-03-04T04:19:06.792Z,33.46
2023-03-04T04:21:33.336Z,33.41
2023-03-04T04:23:59.831Z,33.31
2023-03-04T04:26:26.446Z,33.33
2023-03-04T04:28:52.937Z,33.32
2023-03-04T04:31:19.485Z,33.43
2023-03-04T04:33:46.018Z,33.22
2023-03-04T04:36:16.559Z,33.34
2023-03-04T04:38:43.844Z,33.04
2023-03-04T04:41:23.428Z,33.15
2023-03-04T04:43:50.219Z,33.07
2023-03-04T04:46:17.455Z,32.97
2023-03-04T04:48:44.765Z,33.08
2023-03-04T04:51:11.820Z,32.92
2023-03-04T04:53:38.874Z,32.81
2023-03-04T04:56:13.324Z,32.73
2023-03-04T04:58:40.266Z,32.73
2023-03-04T05:01:07.355Z,32.72
2023-03-04T05:03:35.469Z,32.79
2023-03-04T05:06:02.722Z,32.74
2023-03-04T05:08:29.387Z,32.45
2023-03-04T05:10:56.029Z,32.75
2023-03-04T05:13:22.871Z,32.74
2023-03-04T05:15:52.161Z,32.52
2023-03-04T05:18:19.825Z,32.54
2023-03-04T05:20:50.727Z,32.47
2023-03-04T05:23:17.338Z,32.48
2023-03-04T05:25:43.928Z,32.50
2023-03-04T05:28:13.118Z,32.50
2023-03-04T05:30:41.078Z,32.56
2023-03-04T05:33:08.929Z,32.55
2023-03-04T05:35:36.860Z,32.08
2023-03-04T05:38:08.713Z,32.16
2023-03-04T05:40:35.697Z,32.51
2023-03-04T05:43:02.290Z,32.43
2023-03-04T05:45:29.157Z,32.38
2023-03-04T05:47:56.073Z,32.46
2023-03-04T05:50:23.438Z,32.63
2023-03-04T05:52:53.155Z,32.62
2023-03-04T05:55:20.045Z,32.50
2023-03-04T05:57:46.930Z,32.28
2023-03-04T06:00:15.637Z,32.21
2023-03-04T06:02:42.894Z,32.18
2023-03-04T06:05:11.511Z,32.13
2023-03-04T06:07:38.155Z,32.07
2023-03-04T06:10:05.527Z,32.09
2023-03-04T06:12:32.267Z,31.88
2023-03-04T06:14:58.882Z,31.96
2023-03-04T06:17:25.387Z,31.94
2023-03-04T06:19:51.909Z,32.00
2023-03-04T06:22:18.461Z,31.94
2023-03-04T06:24:45.030Z,31.68
2023-03-04T06:27:11.533Z,31.75
2023-03-04T06:29:38.191Z,31.62
2023-03-04T06:32:05.474Z,31.61
2023-03-04T06:34:33.684Z,31.70
2023-03-04T06:37:00.728Z,31.93
2023-03-04T06:39:27.398Z,31.81
2023-03-04T06:41:53.903Z,31.81
2023-03-04T06:44:20.674Z,31.71
2023-03-04T06:46:47.194Z,31.76
2023-03-04T06:49:13.841Z,31.95
2023-03-04T06:51:40.384Z,31.93
2023-03-04T06:54:06.956Z,31.72
2023-03-04T06:56:33.481Z,31.70
2023-03-04T06:59:00.040Z,31.65
2023-03-04T07:01:28.206Z,31.83
2023-03-04T07:03:55.970Z,31.56
2023-03-04T07:06:25.606Z,31.61
2023-03-04T07:08:52.706Z,31.52
2023-03-04T07:11:19.974Z,31.34
2023-03-04T07:13:46.668Z,31.52
2023-03-04T07:16:17.658Z,31.28
2023-03-04T07:18:44.707Z,31.23
2023-03-04T07:21:12.042Z,31.09
2023-03-04T07:23:39.323Z,31.11
2023-03-04T07:26:06.293Z,30.88
2023-03-04T07:28:33.447Z,30.79
2023-03-04T07:31:30.845Z,30.78
2023-03-04T07:33:59.551Z,30.81
2023-03-04T07:36:26.498Z,30.90
2023-03-04T07:38:54.840Z,31.00
2023-03-04T07:41:23.058Z,31.17
2023-03-04T07:43:49.868Z,31.25
2023-03-04T07:46:16.560Z,31.30
2023-03-04T07:48:43.523Z,31.29
2023-03-04T07:51:21.977Z,31.48
2023-03-04T07:53:51.714Z,31.39
2023-03-04T07:56:21.138Z,31.38
2023-03-04T07:58:48.739Z,31.48
2023-03-04T08:01:18.849Z,31.59
2023-03-04T08:03:46.928Z,31.55
2023-03-04T08:06:15.652Z,31.50
2023-03-04T08:08:43.113Z,31.59
2023-03-04T08:11:19.429Z,31.65
2023-03-04T08:13:46.788Z,31.64
2023-03-04T08:16:17.711Z,31.54
2023-03-04T08:18:45.634Z,31.66
2023-03-04T08:21:13.121Z,31.51
2023-03-04T08:23:40.840Z,31.43
2023-03-04T08:26:13.495Z,31.57
2023-03-04T08:28:40.273Z,31.39
2023-03-04T08:31:07.025Z,31.42
2023-03-04T08:33:34.331Z,31.38
2023-03-04T08:36:00.911Z,31.41
2023-03-04T08:38:27.547Z,31.42
2023-03-04T08:40:55.408Z,31.24
2023-03-04T08:43:23.223Z,31.27
2023-03-04T08:45:49.864Z,31.27
2023-03-04T08:48:17.873Z,31.38
2023-03-04T08:50:47.154Z,31.44
2023-03-04T08:53:14.372Z,31.25
2023-03-04T08:55:42.086Z,31.44
2023-03-04T08:58:11.956Z,31.52
2023-03-04T09:00:43.009Z,31.27
2023-03-04T09:03:12.066Z,31.28
2023-03-04T09:05:39.109Z,31.37
2023-03-04T09:08:07.147Z,31.39
2023-03-04T09:10:34.015Z,31.32
2023-03-04T09:13:01.686Z,31.36
2023-03-04T09:15:28.441Z,31.33
2023-03-04T09:17:55.163Z,31.39
2023-03-04T09:20:23.077Z,31.54
2023-03-04T09:22:52.622Z,31.30
2023-03-04T09:25:19.535Z,31.43
2023-03-04T09:27:46.127Z,31.40
2023-03-04T09:30:13.368Z,31.47
2023-03-04T09:32:41.335Z,31.51
2023-03-04T09:35:09.985Z,31.36
2023-03-04T09:37:39.206Z,31.29
2023-03-04T09:40:09.904Z,31.50
2023-03-04T09:42:48.544Z,31.52
2023-03-04T09:45:21.453Z,31.68
2023-03-04T09:47:51.573Z,31.53
2023-03-04T09:50:19.912Z,31.51
2023-03-04T09:53:05.171Z,31.54
2023-03-04T09:55:37.210Z,31.51
2023-03-04T09:58:37.453Z,31.56
2023-03-04T10:01:20.436Z,31.43
2023-03-04T10:03:53.305Z,31.80
2023-03-04T10:06:22.009Z,32.57
2023-03-04T10:09:01.612Z,33.29
2023-03-04T10:11:34.012Z,33.96
2023-03-04T10:14:04.753Z,34.16
2023-03-04T10:17:24.566Z,34.37
2023-03-04T10:20:09.842Z,34.39
2023-03-04T10:22:43.946Z,34.46
2023-03-04T10:25:29.519Z,34.29
2023-03-04T10:28:04.890Z,33.92
2023-03-04T10:31:13.489Z,34.08
2023-03-04T10:33:41.063Z,33.98
2023-03-04T10:36:25.962Z,33.66
2023-03-04T10:39:00.022Z,33.51
2023-03-04T10:41:29.332Z,33.50
2023-03-04T10:44:04.171Z,33.24
2023-03-04T10:46:31.855Z,33.22
2023-03-04T10:48:59.090Z,33.04
2023-03-04T10:51:28.938Z,33.30
2023-03-04T10:54:05.447Z,33.10
2023-03-04T10:56:38.984Z,32.69
2023-03-04T10:59:33.480Z,32.86
2023-03-04T11:02:02.600Z,32.61
2023-03-04T11:04:34.332Z,32.59
2023-03-04T11:07:00.999Z,32.49
2023-03-04T11:09:32.134Z,32.60
2023-03-04T11:12:04.746Z,32.50
2023-03-04T11:14:39.617Z,32.39
2023-03-04T11:17:29.138Z,32.43
2023-03-04T11:20:18.334Z,32.33
2023-03-04T11:22:49.863Z,32.38
2023-03-04T11:26:02.618Z,32.37
2023-03-04T11:28:52.453Z,32.14
2023-03-04T11:31:23.543Z,32.32
2023-03-04T11:34:02.228Z,32.26
2023-03-04T11:36:50.830Z,32.23
2023-03-04T11:39:24.345Z,32.10
2023-03-04T11:42:24.545Z,32.04
2023-03-04T11:44:52.505Z,32.13
2023-03-04T11:47:50.798Z,32.22
2023-03-04T11:50:27.520Z,32.02
2023-03-04T11:53:03.287Z,32.00
2023-03-04T11:55:39.530Z,31.90
2023-03-04T11:58:18.300Z,32.18
2023-03-04T12:01:25.468Z,31.96
2023-03-04T12:04:01.327Z,32.01
2023-03-04T12:07:02.132Z,32.39
2023-03-04T12:09:41.746Z,32.47
2023-03-04T12:12:29.554Z,32.56
2023-03-04T12:15:08.081Z,33.04
2023-03-04T12:17:40.507Z,33.21
2023-03-04T12:20:34.977Z,33.46
2023-03-04T12:23:27.040Z,33.73
2023-03-04T12:26:30.902Z,33.91
2023-03-04T12:28:57.785Z,34.20
2023-03-04T12:31:39.488Z,34.13
2023-03-04T12:34:24.885Z,34.16
2023-03-04T12:37:26.759Z,34.08
2023-03-04T12:40:08.348Z,34.09
2023-03-04T12:43:11.159Z,34.08
2023-03-04T12:45:52.633Z,34.17
2023-03-04T12:48:33.521Z,34.11
2023-03-04T12:51:09.726Z,34.18
2023-03-04T12:53:51.035Z,34.84
2023-03-04T12:56:33.246Z,35.07
2023-03-04T12:59:00.435Z,35.38
2023-03-04T13:01:37.555Z,35.53
2023-03-04T13:04:34.337Z,35.52
2023-03-04T13:07:22.666Z,35.59
2023-03-04T13:09:57.376Z,35.46
2023-03-04T13:12:24.966Z,36.43
2023-03-04T13:15:09.581Z,37.39
2023-03-04T13:17:46.450Z,37.74
2023-03-04T13:20:31.115Z,37.80
2023-03-04T13:23:05.321Z,37.97
2023-03-04T13:25:44.114Z,37.78
2023-03-04T13:28:11.049Z,37.69
2023-03-04T13:30:40.459Z,37.61
2023-03-04T13:33:13.528Z,37.30
2023-03-04T13:35:51.407Z,37.31
2023-03-04T13:38:34.966Z,37.22
2023-03-04T13:41:20.043Z,36.86
2023-03-04T13:43:54.388Z,36.53
2023-03-04T13:46:21.075Z,36.33
2023-03-04T13:48:50.554Z,36.33
2023-03-04T13:51:30.476Z,37.09
2023-03-04T13:53:59.996Z,37.30
2023-03-04T13:56:28.920Z,37.29
2023-03-04T13:59:07.553Z,37.54
2023-03-04T14:01:45.968Z,37.59
2023-03-04T14:04:21.534Z,37.59
2023-03-04T14:06:49.816Z,37.44
2023-03-04T14:09:23.222Z,37.06
2023-03-04T14:11:52.522Z,36.98
2023-03-04T14:14:24.469Z,36.89
2023-03-04T14:16:56.139Z,36.67
2023-03-04T14:19:43.907Z,36.60
2023-03-04T14:22:28.013Z,36.30
2023-03-04T14:25:13.095Z,36.32
2023-03-04T14:27:40.076Z,36.04
2023-03-04T14:30:26.112Z,35.85
2023-03-04T14:33:02.276Z,35.83
2023-03-04T14:35:31.116Z,35.71
2023-03-04T14:38:07.274Z,35.55
2023-03-04T14:40:40.486Z,35.46
2023-03-04T14:43:16.202Z,35.41
2023-03-04T14:45:44.854Z,35.10
2023-03-04T14:48:20.469Z,34.98
2023-03-04T14:50:51.611Z,35.09
2023-03-04T14:53:21.587Z,34.97
2023-03-04T14:56:08.658Z,34.72
2023-03-04T14:58:51.344Z,34.77
2023-03-04T15:01:23.305Z,34.56
2023-03-04T15:04:00.637Z,34.62
2023-03-04T15:06:33.198Z,34.52
2023-03-04T15:09:02.028Z,34.46
2023-03-04T15:11:45.920Z,34.45
2023-03-04T15:14:43.369Z,34.41
2023-03-04T15:17:33.874Z,34.09
2023-03-04T15:20:00.450Z,34.08
2023-03-04T15:22:27.271Z,34.03
2023-03-04T15:24:53.938Z,34.02
2023-03-04T15:27:24.125Z,34.08
2023-03-04T15:29:55.877Z,33.98
2023-03-04T15:32:27.181Z,34.05
2023-03-04T15:34:53.827Z,34.48
2023-03-04T15:37:26.963Z,34.05
2023-03-04T15:39:56.310Z,33.77
2023-03-04T15:42:23.261Z,34.06
2023-03-04T15:44:50.134Z,33.87
2023-03-04T15:47:16.714Z,33.82
2023-03-04T15:49:44.571Z,33.75
2023-03-04T15:52:18.795Z,33.71
2023-03-04T15:54:46.495Z,33.73
2023-03-04T15:57:31.675Z,33.76
2023-03-04T15:59:58.363Z,34.62
2023-03-04T16:02:30.503Z,34.64
2023-03-04T16:04:57.191Z,34.49
2023-03-04T16:07:28.473Z,34.56
2023-03-04T16:10:02.503Z,34.63
2023-03-04T16:12:29.294Z,34.62
2023-03-04T16:14:56.160Z,34.54
2023-03-04T16:17:22.796Z,34.42
2023-03-04T16:19:49.383Z,34.25
2023-03-04T16:22:19.775Z,34.48
2023-03-04T16:24:49.255Z,34.39
2023-03-04T16:27:17.882Z,34.33
2023-03-04T16:29:44.694Z,34.35
2023-03-04T16:32:14.143Z,34.30
2023-03-04T16:34:40.913Z,34.27
2023-03-04T16:37:13.913Z,34.23
2023-03-04T16:39:45.977Z,34.32
2023-03-04T16:42:16.037Z,34.12
2023-03-04T16:44:43.120Z,34.33
2023-03-04T16:47:09.685Z,34.36
2023-03-04T16:49:36.420Z,34.35
2023-03-04T16:52:03.408Z,34.08
2023-03-04T16:54:33.129Z,34.28
2023-03-04T16:57:01.139Z,34.17
2023-03-04T16:59:28.953Z,34.31
2023-03-04T17:01:56.193Z,34.16
2023-03-04T17:04:23.030Z,34.18
2023-03-04T17:06:49.767Z,34.12
2023-03-04T17:09:16.426Z,34.21
2023-03-04T17:11:43.158Z,34.07
2023-03-04T17:14:09.851Z,34.16
2023-03-04T17:16:36.533Z,34.23
2023-03-04T17:19:03.211Z,34.06
2023-03-04T17:21:29.744Z,34.68
2023-03-04T17:23:56.339Z,35.32
2023-03-04T17:26:23.048Z,36.04
2023-03-04T17:28:50.662Z,36.33
2023-03-04T17:33:30.203Z,36.53
2023-03-04T17:35:58.248Z,36.75
2023-03-04T17:38:24.837Z,36.91
2023-03-04T17:40:51.650Z,36.82
2023-03-04T17:43:20.814Z,36.89
2023-03-04T17:45:50.210Z,36.87
2023-03-04T17:48:16.982Z,36.78
2023-03-04T17:50:50.847Z,36.85
2023-03-04T17:53:20.648Z,36.78
2023-03-04T17:55:55.737Z,36.59
2023-03-04T17:58:26.073Z,36.57
2023-03-04T18:00:55.665Z,36.45
2023-03-04T18:03:23.483Z,36.41
2023-03-04T18:05:50.098Z,36.34
2023-03-04T18:08:16.678Z,36.05
2023-03-04T18:10:43.391Z,35.75
2023-03-04T18:13:10.126Z,36.15
2023-03-04T18:15:36.771Z,35.93
2023-03-04T18:18:03.635Z,35.93
2023-03-04T18:20:30.205Z,36.02
2023-03-04T18:22:58.661Z,35.69
2023-03-04T18:25:28.403Z,35.62
2023-03-04T18:27:54.950Z,35.22
2023-03-04T18:30:27.140Z,35.04
2023-03-04T18:32:56.080Z,35.16
2023-03-04T18:35:25.858Z,35.16
2023-03-04T18:37:52.535Z,35.15
2023-03-04T18:40:19.222Z,34.74
2023-03-04T18:42:45.942Z,34.59
2023-03-04T18:45:13.712Z,34.68
2023-03-04T18:47:43.882Z,34.45
2023-03-04T18:50:10.920Z,34.48
2023-03-04T18:52:37.661Z,34.07
2023-03-04T18:55:04.662Z,34.16
2023-03-04T18:57:31.659Z,34.13
2023-03-04T19:00:00.435Z,33.89
2023-03-04T19:02:56.005Z,33.75
2023-03-04T19:05:27.504Z,33.69
2023-03-04T19:07:54.448Z,33.86
2023-03-04T19:10:21.856Z,34.09
2023-03-04T19:12:48.617Z,34.27
2023-03-04T19:15:18.573Z,34.34
2023-03-04T19:17:47.799Z,34.29
2023-03-04T19:20:16.064Z,34.32
2023-03-04T19:22:43.304Z,34.14
2023-03-04T19:25:10.355Z,33.78
2023-03-04T19:27:37.048Z,33.78
2023-03-04T19:32:20.321Z,33.50
2023-03-04T19:34:47.539Z,33.51
2023-03-04T19:37:15.405Z,33.67
2023-03-04T19:39:46.082Z,33.55
2023-03-04T19:42:13.298Z,33.47
2023-03-04T19:44:44.719Z,33.40
2023-03-04T19:47:11.552Z,33.23
2023-03-04T19:49:40.117Z,33.05
2023-03-04T19:52:15.163Z,33.19
2023-03-04T19:54:43.977Z,33.16
2023-03-04T19:57:10.650Z,33.04
2023-03-04T19:59:40.358Z,33.09
2023-03-04T20:02:08.273Z,32.86
2023-03-04T20:04:38.353Z,32.85
2023-03-04T20:07:05.017Z,32.80
2023-03-04T20:09:32.120Z,32.60
2023-03-04T20:11:59.599Z,32.97
2023-03-04T20:14:27.007Z,32.97
2023-03-04T20:16:53.781Z,33.05
2023-03-04T20:19:20.601Z,33.00
2023-03-04T20:21:47.250Z,33.08
2023-03-04T20:24:15.122Z,33.07
2023-03-04T20:26:42.293Z,33.24
2023-03-04T20:29:16.589Z,33.87
2023-03-04T20:31:59.318Z,33.70
2023-03-04T20:34:27.101Z,33.60
2023-03-04T20:36:53.894Z,33.64
2023-03-04T20:39:29.786Z,33.71
2023-03-04T20:41:58.386Z,33.66
2023-03-04T20:44:29.130Z,33.64
2023-03-04T20:46:58.559Z,33.69
2023-03-04T20:49:31.580Z,33.77
2023-03-04T20:52:09.130Z,33.72
2023-03-04T20:54:38.644Z,34.10
2023-03-04T20:57:08.531Z,34.19
2023-03-04T20:59:39.755Z,34.37
2023-03-04T21:02:14.916Z,34.16
2023-03-04T21:04:41.872Z,34.38
2023-03-04T21:07:12.628Z,34.15
2023-03-04T21:09:43.790Z,34.04
2023-03-04T21:12:12.746Z,34.06
2023-03-04T21:14:39.990Z,34.23
2023-03-04T21:17:07.308Z,33.98
2023-03-04T21:19:38.047Z,34.18
2023-03-04T21:22:04.787Z,34.15
2023-03-04T21:24:34.221Z,34.09
2023-03-04T21:27:01.583Z,33.96
2023-03-04T21:29:28.217Z,34.25
2023-03-04T21:31:58.119Z,34.23
2023-03-04T21:34:29.507Z,34.24
2023-03-04T21:36:56.573Z,35.04
2023-03-04T21:39:24.968Z,36.25
2023-03-04T21:41:52.003Z,36.93
2023-03-04T21:44:28.476Z,36.95
2023-03-04T21:47:01.174Z,37.36
2023-03-04T21:49:28.473Z,36.93
2023-03-04T21:51:55.160Z,37.20
2023-03-04T21:54:21.872Z,37.50
2023-03-04T21:56:50.137Z,37.52
2023-03-04T21:59:20.006Z,37.55
2023-03-04T22:01:46.819Z,36.99
2023-03-04T22:04:13.508Z,36.98
2023-03-04T22:06:41.457Z,36.71
2023-03-04T22:09:08.400Z,36.56
2023-03-04T22:11:35.098Z,36.20
2023-03-04T22:14:02.853Z,35.93
2023-03-04T22:16:30.615Z,35.65
2023-03-04T22:18:57.618Z,35.97
2023-03-04T22:21:24.258Z,35.70
2023-03-04T22:23:51.196Z,35.34
2023-03-04T22:26:29.846Z,35.39
2023-03-04T22:28:56.671Z,35.13
2023-03-04T22:31:30.338Z,35.30
2023-03-04T22:33:56.917Z,34.76
2023-03-04T22:36:23.775Z,34.67
2023-03-04T22:38:50.968Z,34.47
2023-03-04T22:41:19.748Z,34.28
2023-03-04T22:43:50.202Z,34.42
2023-03-04T22:46:24.835Z,34.30
2023-03-04T22:48:53.076Z,34.37
2023-03-04T22:51:20.704Z,34.18
2023-03-04T22:53:48.521Z,33.96
2023-03-04T22:56:15.683Z,33.90
2023-03-04T22:58:44.757Z,33.89
2023-03-04T23:01:13.296Z,33.61
2023-03-04T23:03:41.494Z,33.57
2023-03-04T23:06:17.600Z,33.70
2023-03-04T23:08:46.530Z,33.45
2023-03-04T23:11:21.058Z,33.50
2023-03-04T23:13:50.218Z,33.22
2023-03-04T23:16:18.135Z,33.33
2023-03-04T23:18:48.927Z,33.36
2023-03-04T23:21:21.670Z,33.42
2023-03-04T23:23:48.994Z,33.07
2023-03-04T23:26:24.777Z,32.90
2023-03-04T23:28:54.253Z,33.02
2023-03-04T23:31:20.814Z,32.85
2023-03-04T23:33:48.420Z,32.74
2023-03-04T23:36:18.572Z,33.04
2023-03-04T23:38:47.741Z,32.91
2023-03-04T23:41:17.554Z,32.53
2023-03-04T23:43:44.384Z,32.64
2023-03-04T23:46:14.129Z,32.79
2023-03-04T23:48:46.357Z,32.46
2023-03-04T23:51:18.078Z,32.47
2023-03-04T23:53:45.573Z,32.51
2023-03-04T23:56:17.770Z,32.43
2023-03-04T23:58:44.541Z,32.29
